Time;durP1;ratioP1;P1;durP2;ratioP2;P2;SDS_P1;SDS_P2;PMS_P1;PMS_P2;Temp;Humidity;BMP_temperature;BMP_pressure;BME280_temperature;BME280_humidity;BME280_pressure;Samples;Min_cycle;Max_cycle;Signal;HPM_P1;HPM_P2
2021/01/06 00:01:38;;;;;;;16.67;6.65;;;6.70;55.50;;;;;;7665298;23;20024;-74
2021/01/06 00:04:40;;;;;;;21.33;8.85;;;6.80;55.50;;;;;;7689889;23;20092;-75
2021/01/06 00:07:42;;;;;;;24.17;9.48;;;6.80;55.30;;;;;;7690028;23;20056;-75
2021/01/06 00:10:47;;;;;;;12.65;6.32;;;6.80;55.30;;;;;;7715716;23;20099;-76
2021/01/06 00:13:50;;;;;;;24.90;9.88;;;6.80;55.30;;;;;;7689929;23;20036;-75
2021/01/06 00:16:52;;;;;;;22.35;7.80;;;6.70;55.40;;;;;;7664727;23;20027;-75
2021/01/06 00:19:53;;;;;;;21.95;8.95;;;6.70;55.50;;;;;;7677063;23;20020;-76
2021/01/06 00:22:54;;;;;;;21.23;8.02;;;6.70;55.50;;;;;;7652826;23;20017;-75
2021/01/06 00:25:55;;;;;;;22.30;10.27;;;6.70;55.50;;;;;;7714661;23;20427;-75
2021/01/06 00:28:56;;;;;;;18.30;8.25;;;6.70;55.70;;;;;;7715646;23;20025;-75
2021/01/06 00:31:57;;;;;;;25.13;11.85;;;6.70;55.60;;;;;;7663439;23;20031;-75
2021/01/06 00:34:58;;;;;;;24.40;9.77;;;6.70;55.50;;;;;;7689168;23;20017;-74
2021/01/06 00:38:00;;;;;;;22.00;9.55;;;6.80;55.50;;;;;;7689446;23;20451;-75
2021/01/06 00:41:01;;;;;;;20.73;8.93;;;6.80;55.40;;;;;;7715403;23;20434;-75
2021/01/06 00:44:02;;;;;;;20.05;8.95;;;6.80;55.30;;;;;;7715244;23;20092;-75
2021/01/06 00:47:03;;;;;;;19.45;8.98;;;6.80;55.20;;;;;;7689624;23;20431;-75
2021/01/06 00:54:26;;;;;;;12.52;6.32;;;6.80;55.20;;;;;;7704371;23;20009;-75
2021/01/06 00:57:27;;;;;;;20.00;7.95;;;6.80;55.10;;;;;;7662373;23;20012;-74
2021/01/06 01:00:31;;;;;;;26.33;9.85;;;6.80;55.10;;;;;;7688118;23;20040;-75
2021/01/06 01:03:36;;;;;;;22.58;9.88;;;6.80;55.20;;;;;;7675772;23;20059;-76
2021/01/06 01:06:37;;;;;;;20.88;8.52;;;6.70;55.20;;;;;;7688092;23;20009;-76
2021/01/06 01:09:38;;;;;;;23.63;9.23;;;6.70;55.20;;;;;;7688092;23;20036;-76
2021/01/06 01:12:40;;;;;;;23.75;9.98;;;6.70;55.30;;;;;;7714542;23;20029;-75
2021/01/06 01:15:44;;;;;;;20.42;8.77;;;6.80;55.30;;;;;;7649480;23;20032;-74
2021/01/06 01:18:45;;;;;;;19.45;8.45;;;6.70;55.20;;;;;;7685035;23;20119;-77
2021/01/06 01:21:46;;;;;;;24.05;9.60;;;6.80;55.30;;;;;;7676576;23;20031;-75
2021/01/06 01:24:47;;;;;;;18.88;8.00;;;6.80;55.30;;;;;;7643035;23;20021;-75
2021/01/06 01:27:48;;;;;;;20.77;7.28;;;6.80;55.30;;;;;;7635187;23;20017;-76
2021/01/06 01:30:50;;;;;;;26.90;9.18;;;6.80;55.30;;;;;;7651431;23;20024;-76
2021/01/06 01:33:51;;;;;;;22.65;8.93;;;6.80;55.40;;;;;;7677235;23;20017;-74
2021/01/06 01:36:51;;;;;;;22.25;8.35;;;6.70;55.40;;;;;;7675355;23;20013;-74
2021/01/06 01:39:52;;;;;;;23.17;9.25;;;6.80;55.40;;;;;;7652528;23;20013;-76
2021/01/06 01:43:01;;;;;;;24.25;9.20;;;6.80;55.40;;;;;;7650752;23;20028;-75
2021/01/06 01:46:03;;;;;;;24.83;9.18;;;6.80;55.30;;;;;;7678853;23;20036;-75
2021/01/06 01:49:12;;;;;;;25.15;10.25;;;6.80;55.40;;;;;;7646324;23;20031;-75
2021/01/06 01:52:34;;;;;;;24.05;8.55;;;6.80;55.50;;;;;;7639465;23;20101;-75
2021/01/06 01:55:37;;;;;;;22.25;9.20;;;6.80;55.50;;;;;;7651165;23;20013;-75
2021/01/06 01:58:54;;;;;;;23.48;9.20;;;6.80;55.50;;;;;;7652589;23;20009;-74
2021/01/06 02:02:00;;;;;;;19.65;8.55;;;6.80;55.50;;;;;;7652450;23;20082;-75
2021/01/06 02:05:16;;;;;;;25.40;9.68;;;6.80;55.50;;;;;;7677420;23;20020;-75
2021/01/06 02:08:23;;;;;;;27.40;9.40;;;6.80;55.50;;;;;;7652502;23;20017;-74
2021/01/06 02:11:36;;;;;;;25.00;10.30;;;6.80;55.50;;;;;;7677196;23;20021;-75
2021/01/06 02:14:47;;;;;;;20.88;8.35;;;6.80;55.50;;;;;;7648294;23;20009;-75
2021/01/06 02:17:48;;;;;;;17.73;7.10;;;6.80;55.50;;;;;;7667747;23;20017;-76
2021/01/06 02:21:08;;;;;;;15.40;8.55;;;6.80;55.50;;;;;;7652400;23;20367;-74
2021/01/06 02:24:09;;;;;;;13.90;6.20;;;6.80;55.50;;;;;;7652897;23;20020;-74
2021/01/06 02:27:10;;;;;;;21.65;8.35;;;6.70;55.70;;;;;;7650895;23;20029;-75
2021/01/06 02:30:12;;;;;;;17.50;8.05;;;6.70;55.70;;;;;;7642506;23;20021;-75
2021/01/06 02:33:13;;;;;;;17.75;8.82;;;6.70;55.70;;;;;;7678085;23;20039;-74
2021/01/06 02:36:15;;;;;;;19.88;8.68;;;6.70;55.70;;;;;;7679153;23;20029;-75
2021/01/06 02:39:17;;;;;;;27.25;10.65;;;6.70;55.70;;;;;;7684746;23;20009;-74
2021/01/06 02:42:18;;;;;;;21.85;8.32;;;6.80;55.50;;;;;;7683711;23;20017;-74
2021/01/06 02:45:20;;;;;;;22.67;9.07;;;6.80;55.50;;;;;;7683864;23;20048;-74
2021/01/06 02:48:21;;;;;;;27.23;9.25;;;6.80;55.50;;;;;;7690628;23;20017;-74
2021/01/06 02:51:37;;;;;;;24.92;10.15;;;6.80;55.50;;;;;;7722477;23;20021;-75
2021/01/06 02:54:43;;;;;;;21.55;8.10;;;6.90;55.60;;;;;;7691909;23;20324;-74
2021/01/06 02:57:46;;;;;;;29.35;8.68;;;6.90;55.60;;;;;;7664501;23;20179;-75
2021/01/06 03:00:48;;;;;;;27.10;9.98;;;6.80;55.50;;;;;;7660496;23;20349;-74
2021/01/06 03:03:51;;;;;;;27.38;9.98;;;6.80;55.50;;;;;;7688447;23;20024;-74
2021/01/06 03:06:59;;;;;;;21.48;8.88;;;6.80;55.50;;;;;;7688859;23;20021;-75
2021/01/06 03:09:59;;;;;;;22.70;10.40;;;6.80;55.70;;;;;;7703662;23;20051;-74
2021/01/06 03:13:01;;;;;;;28.17;9.43;;;6.70;55.70;;;;;;7665501;23;20013;-75
2021/01/06 03:16:03;;;;;;;20.90;9.10;;;6.70;55.80;;;;;;7716467;23;20017;-75
2021/01/06 03:19:20;;;;;;;36.08;11.18;;;6.70;55.90;;;;;;7690335;23;20019;-74
2021/01/06 03:22:24;;;;;;;24.45;10.23;;;6.70;56.00;;;;;;7676241;23;20013;-74
2021/01/06 03:25:26;;;;;;;18.48;8.23;;;6.70;56.10;;;;;;7690226;23;20017;-74
2021/01/06 03:28:29;;;;;;;24.58;9.02;;;6.70;56.20;;;;;;7715920;23;20005;-75
2021/01/06 03:31:40;;;;;;;25.90;10.90;;;6.70;56.40;;;;;;7688391;23;20033;-75
2021/01/06 03:34:53;;;;;;;28.40;9.70;;;6.70;56.50;;;;;;7690196;23;20059;-77
2021/01/06 03:38:01;;;;;;;28.38;8.68;;;6.70;56.60;;;;;;7690464;23;20088;-74
2021/01/06 03:41:07;;;;;;;24.90;8.82;;;6.60;56.60;;;;;;7716299;23;20025;-76
2021/01/06 03:44:11;;;;;;;27.80;10.85;;;6.60;56.70;;;;;;7690484;23;20027;-75
2021/01/06 03:47:21;;;;;;;27.67;9.02;;;6.60;56.80;;;;;;7690478;23;20012;-75
2021/01/06 03:50:41;;;;;;;25.35;9.60;;;6.50;56.90;;;;;;7714827;23;20327;-76
2021/01/06 03:53:43;;;;;;;21.63;8.93;;;6.50;57.10;;;;;;7689643;23;20028;-76
2021/01/06 03:56:45;;;;;;;29.00;11.07;;;6.50;57.30;;;;;;7715356;23;20019;-76
2021/01/06 03:59:49;;;;;;;25.25;10.02;;;6.40;57.50;;;;;;7715610;23;20009;-74
2021/01/06 04:02:54;;;;;;;30.10;9.52;;;6.40;57.80;;;;;;7690140;23;20039;-74
2021/01/06 04:05:57;;;;;;;20.58;7.28;;;6.40;57.90;;;;;;7690127;23;20032;-74
2021/01/06 04:09:00;;;;;;;25.70;7.38;;;6.40;58.10;;;;;;7690325;23;20012;-74
2021/01/06 04:12:14;;;;;;;21.05;9.75;;;6.40;58.20;;;;;;7715844;23;20099;-75
2021/01/06 04:15:16;;;;;;;31.10;9.80;;;6.30;58.30;;;;;;7715918;23;20074;-74
2021/01/06 04:18:17;;;;;;;24.27;8.70;;;6.30;58.40;;;;;;7688157;23;20013;-74
2021/01/06 04:21:19;;;;;;;22.45;8.70;;;6.30;58.50;;;;;;7689384;23;20017;-74
2021/01/06 04:24:20;;;;;;;23.23;10.93;;;6.30;58.60;;;;;;7715532;23;20020;-74
2021/01/06 04:27:20;;;;;;;18.90;8.85;;;6.30;58.70;;;;;;7715519;23;20017;-75
2021/01/06 04:30:27;;;;;;;23.77;9.48;;;6.30;58.70;;;;;;7713980;23;20017;-74
2021/01/06 04:33:47;;;;;;;22.10;8.88;;;6.30;58.70;;;;;;7689595;23;20104;-74
2021/01/06 04:36:48;;;;;;;20.80;8.18;;;6.30;58.70;;;;;;7711735;23;20012;-74
2021/01/06 04:39:49;;;;;;;17.83;7.65;;;6.30;58.60;;;;;;7712109;23;20420;-76
2021/01/06 04:42:51;;;;;;;21.23;8.63;;;6.30;58.50;;;;;;7686157;23;20012;-75
2021/01/06 04:46:16;;;;;;;25.67;8.43;;;6.30;58.50;;;;;;7686219;23;20017;-76
2021/01/06 04:49:51;;;;;;;21.45;8.00;;;6.20;58.30;;;;;;7709550;23;20009;-76
2021/01/06 04:53:11;;;;;;;18.65;7.97;;;6.20;58.30;;;;;;7684362;23;20024;-75
2021/01/06 04:56:33;;;;;;;20.95;9.20;;;6.30;58.30;;;;;;7685108;23;20467;-75
2021/01/06 04:59:53;;;;;;;20.20;8.23;;;6.30;58.00;;;;;;7685837;23;20079;-75
2021/01/06 05:02:53;;;;;;;19.63;7.28;;;6.30;57.70;;;;;;7685984;23;20447;-76
2021/01/06 05:06:17;;;;;;;20.08;8.13;;;6.40;57.50;;;;;;7687667;23;20120;-76
2021/01/06 05:09:47;;;;;;;13.13;6.53;;;6.40;57.30;;;;;;7713765;23;20012;-75
2021/01/06 05:12:51;;;;;;;18.67;7.45;;;6.40;57.10;;;;;;7612858;23;20041;-76
2021/01/06 05:16:00;;;;;;;17.80;8.70;;;6.40;56.90;;;;;;7639753;23;20022;-74
2021/01/06 05:19:06;;;;;;;23.27;9.75;;;6.50;56.80;;;;;;7613133;23;20423;-74
2021/01/06 05:22:11;;;;;;;16.70;8.45;;;6.50;56.70;;;;;;7576083;23;20307;-74
2021/01/06 05:25:14;;;;;;;23.52;7.70;;;6.50;56.60;;;;;;7614898;23;20101;-75
2021/01/06 05:28:18;;;;;;;14.02;6.53;;;6.50;56.40;;;;;;7614505;23;20018;-74
2021/01/06 05:31:19;;;;;;;21.15;7.63;;;6.50;56.30;;;;;;7647923;23;20105;-74
2021/01/06 05:34:23;;;;;;;19.10;8.65;;;6.60;56.30;;;;;;7652545;23;20048;-75
2021/01/06 05:37:24;;;;;;;17.73;6.35;;;6.60;56.20;;;;;;7623738;23;20085;-76
2021/01/06 05:40:27;;;;;;;28.20;9.43;;;6.60;56.20;;;;;;7646875;23;20310;-76
2021/01/06 05:43:28;;;;;;;24.35;9.18;;;6.50;56.10;;;;;;7621368;23;20041;-76
2021/01/06 05:46:31;;;;;;;22.88;7.70;;;6.50;56.20;;;;;;7616532;23;20017;-74
2021/01/06 05:49:33;;;;;;;30.65;9.52;;;6.50;56.20;;;;;;7680840;23;20016;-75
2021/01/06 05:52:34;;;;;;;23.27;8.98;;;6.60;56.20;;;;;;7713676;23;20020;-77
2021/01/06 05:55:36;;;;;;;27.90;10.05;;;6.60;56.10;;;;;;7716168;23;20009;-76
2021/01/06 05:58:48;;;;;;;25.35;8.82;;;6.60;56.10;;;;;;7715611;23;20017;-76
2021/01/06 06:01:58;;;;;;;22.73;7.80;;;6.70;56.10;;;;;;7690263;23;20139;-75
2021/01/06 06:05:36;;;;;;;20.73;8.60;;;6.70;55.90;;;;;;7689443;23;20316;-74
2021/01/06 06:09:05;;;;;;;19.77;8.23;;;6.70;55.80;;;;;;7685898;23;20431;-74
2021/01/06 06:12:34;;;;;;;12.60;6.00;;;6.70;55.70;;;;;;7686922;23;20024;-74
2021/01/06 06:16:26;;;;;;;21.73;9.23;;;6.70;55.70;;;;;;7685592;23;20012;-75
2021/01/06 06:19:54;;;;;;;20.60;8.40;;;6.70;55.70;;;;;;7502411;23;20011;-75
2021/01/06 06:23:38;;;;;;;27.23;10.13;;;6.70;55.70;;;;;;7526060;23;20034;-75
2021/01/06 06:26:55;;;;;;;22.63;7.85;;;6.70;55.80;;;;;;7526983;23;20058;-77
2021/01/06 06:30:11;;;;;;;15.70;6.88;;;6.70;55.70;;;;;;7485379;23;20019;-78
2021/01/06 06:33:20;;;;;;;20.27;8.00;;;6.70;55.50;;;;;;7525622;23;20022;-76
2021/01/06 06:36:25;;;;;;;22.90;8.90;;;6.70;55.50;;;;;;7500316;23;20411;-77
2021/01/06 06:39:58;;;;;;;24.20;7.85;;;6.60;55.40;;;;;;7526783;23;20415;-76
2021/01/06 06:43:02;;;;;;;22.70;9.65;;;6.60;55.50;;;;;;7489713;23;20367;-78
2021/01/06 06:46:54;;;;;;;19.42;7.68;;;6.60;55.40;;;;;;7537951;23;20152;-75
2021/01/06 06:49:58;;;;;;;20.95;8.38;;;6.60;55.30;;;;;;7385379;24;20539;-76
2021/01/06 06:53:36;;;;;;;18.73;7.80;;;6.60;55.20;;;;;;7372382;24;20016;-75
2021/01/06 06:57:07;;;;;;;20.67;8.63;;;6.60;55.20;;;;;;7501491;23;20450;-74
2021/01/06 07:00:13;;;;;;;20.52;8.90;;;6.60;55.10;;;;;;7526453;23;20105;-76
2021/01/06 07:03:21;;;;;;;25.05;8.32;;;6.60;55.10;;;;;;7527793;23;20011;-76
2021/01/06 07:06:22;;;;;;;19.30;8.83;;;6.60;55.10;;;;;;7502604;23;20019;-76
2021/01/06 07:09:34;;;;;;;15.77;6.63;;;6.70;55.00;;;;;;7491065;23;20312;-77
2021/01/06 07:12:40;;;;;;;24.60;8.50;;;6.60;54.90;;;;;;7527746;23;20316;-77
2021/01/06 07:16:03;;;;;;;22.17;9.15;;;6.60;54.80;;;;;;7543225;23;20033;-76
2021/01/06 07:19:51;;;;;;;21.40;8.38;;;6.70;54.90;;;;;;7540751;23;20014;-75
2021/01/06 07:22:56;;;;;;;21.98;8.60;;;6.60;55.00;;;;;;7375984;24;20024;-77
2021/01/06 07:26:08;;;;;;;21.98;8.80;;;6.60;54.90;;;;;;7477079;23;20019;-74
2021/01/06 07:29:12;;;;;;;18.27;7.40;;;6.70;54.90;;;;;;7488999;23;20034;-75
2021/01/06 07:32:13;;;;;;;25.92;7.72;;;6.70;54.80;;;;;;7492502;23;20431;-75
2021/01/06 07:35:24;;;;;;;25.48;7.50;;;6.70;54.60;;;;;;7479328;23;20027;-75
2021/01/06 07:38:33;;;;;;;22.77;7.65;;;6.60;54.50;;;;;;7468663;23;20372;-75
2021/01/06 07:41:42;;;;;;;;;;;6.60;54.40;;;;;;7469246;23;20031;-75
2021/01/06 07:44:43;;;;;;;17.70;6.57;;;6.60;54.50;;;;;;7469002;23;19910;-75
2021/01/06 07:47:59;;;;;;;21.05;6.70;;;6.50;54.30;;;;;;7492826;23;20356;-78
2021/01/06 07:51:02;;;;;;;20.90;7.70;;;6.50;54.30;;;;;;7475705;23;20074;-77
2021/01/06 07:54:09;;;;;;;16.08;6.45;;;6.50;54.30;;;;;;7478562;23;20087;-77
2021/01/06 07:57:23;;;;;;;19.73;6.88;;;6.50;54.20;;;;;;7471122;23;20034;-76
2021/01/06 08:00:30;;;;;;;22.65;7.45;;;6.50;54.10;;;;;;7674072;23;20415;-77
2021/01/06 08:03:34;;;;;;;13.50;5.55;;;6.50;54.00;;;;;;7673617;23;20040;-75
2021/01/06 08:06:47;;;;;;;23.20;7.28;;;6.50;53.90;;;;;;7670875;23;20024;-75
2021/01/06 08:09:49;;;;;;;20.35;6.75;;;6.50;53.90;;;;;;7648332;23;20370;-77
2021/01/06 08:12:51;;;;;;;14.40;6.18;;;6.60;53.90;;;;;;7673838;23;20024;-76
2021/01/06 08:16:10;;;;;;;18.80;7.45;;;6.60;53.70;;;;;;7674855;23;20020;-77
2021/01/06 08:19:20;;;;;;;14.70;5.43;;;6.60;53.60;;;;;;7676152;23;20341;-77
2021/01/06 08:22:34;;;;;;;19.67;7.25;;;6.60;53.60;;;;;;7675165;23;20009;-76
2021/01/06 08:25:36;;;;;;;21.70;7.32;;;6.60;53.40;;;;;;7676004;23;20013;-77
2021/01/06 08:28:37;;;;;;;15.57;5.68;;;6.60;53.40;;;;;;7675717;23;20035;-77
2021/01/06 08:31:38;;;;;;;18.40;7.35;;;6.70;53.40;;;;;;7674784;23;20025;-76
2021/01/06 08:34:52;;;;;;;19.70;7.05;;;6.70;53.20;;;;;;7674298;23;20021;-76
2021/01/06 08:37:53;;;;;;;18.20;6.72;;;6.70;53.20;;;;;;7675255;23;20017;-75
2021/01/06 08:40:55;;;;;;;13.40;6.30;;;6.80;53.10;;;;;;7674046;23;20151;-75
2021/01/06 08:43:56;;;;;;;16.02;7.25;;;6.80;53.00;;;;;;7674382;23;20021;-77
2021/01/06 08:46:59;;;;;;;15.43;6.72;;;6.80;52.80;;;;;;7669240;23;20412;-76
2021/01/06 08:50:23;;;;;;;17.88;6.55;;;6.80;53.30;;;;;;7690017;23;20112;-77
2021/01/06 08:53:34;;;;;;;14.25;5.53;;;6.70;52.70;;;;;;7628971;23;20028;-75
2021/01/06 08:56:34;;;;;;;23.02;7.07;;;6.70;52.70;;;;;;7627797;23;20029;-77
2021/01/06 08:59:37;;;;;;;16.27;5.93;;;6.70;52.90;;;;;;7651961;23;20358;-77
2021/01/06 09:03:06;;;;;;;16.23;6.13;;;6.60;52.90;;;;;;7653165;23;20101;-76
2021/01/06 09:06:17;;;;;;;15.77;6.43;;;6.70;53.00;;;;;;7711712;23;20052;-75
2021/01/06 09:09:45;;;;;;;11.60;5.30;;;6.70;53.00;;;;;;7652868;23;20337;-76
2021/01/06 09:12:51;;;;;;;14.32;5.50;;;6.70;53.10;;;;;;7684623;23;20035;-76
2021/01/06 09:16:08;;;;;;;16.23;5.63;;;6.70;53.00;;;;;;7676182;23;20009;-75
2021/01/06 09:19:27;;;;;;;16.95;7.25;;;6.70;52.90;;;;;;7651944;23;20404;-76
2021/01/06 09:22:29;;;;;;;19.50;7.32;;;6.70;52.90;;;;;;7649127;23;20013;-75
2021/01/06 09:25:31;;;;;;;18.15;5.13;;;6.70;52.80;;;;;;7650439;23;20017;-77
2021/01/06 09:28:37;;;;;;;15.40;6.43;;;6.80;52.90;;;;;;7650267;23;20021;-76
2021/01/06 09:31:52;;;;;;;21.73;7.25;;;6.80;52.70;;;;;;7645546;23;20441;-76
2021/01/06 09:34:59;;;;;;;17.05;7.43;;;6.80;52.60;;;;;;7684182;23;20020;-76
2021/01/06 09:38:04;;;;;;;;;;;6.80;52.50;;;;;;7712971;23;20024;-74
2021/01/06 09:41:11;;;;;;;17.20;4.95;;;6.80;52.50;;;;;;7713764;23;19914;-76
2021/01/06 09:44:12;;;;;;;13.55;6.13;;;6.80;52.40;;;;;;7679119;23;20051;-76
2021/01/06 09:47:22;;;;;;;14.98;6.95;;;6.90;52.20;;;;;;7650982;23;20025;-77
2021/01/06 09:50:29;;;;;;;24.17;9.40;;;6.90;52.10;;;;;;7649428;23;20337;-77
2021/01/06 09:53:31;;;;;;;17.15;6.15;;;6.90;52.20;;;;;;7650547;23;20262;-76
2021/01/06 09:56:35;;;;;;;13.25;5.45;;;6.80;52.20;;;;;;7684411;23;20070;-77
2021/01/06 09:59:38;;;;;;;14.27;5.60;;;6.90;52.10;;;;;;7683559;23;20005;-76
2021/01/06 10:02:48;;;;;;;15.57;6.50;;;6.80;52.00;;;;;;7724502;23;20016;-77
2021/01/06 10:06:25;;;;;;;10.00;4.63;;;6.90;52.10;;;;;;7706525;23;20017;-74
2021/01/06 10:09:40;;;;;;;17.88;5.90;;;7.00;52.10;;;;;;7685904;23;20082;-75
2021/01/06 10:12:54;;;;;;;14.32;5.35;;;7.00;52.00;;;;;;7693700;23;20031;-76
2021/01/06 10:16:17;;;;;;;20.67;7.40;;;7.10;52.00;;;;;;7655878;23;20012;-77
2021/01/06 10:20:11;;;;;;;12.85;5.57;;;7.10;51.60;;;;;;7688924;23;20025;-77
2021/01/06 10:23:29;;;;;;;14.00;5.47;;;7.20;51.50;;;;;;7683533;23;20097;-76
2021/01/06 10:26:48;;;;;;;14.15;6.07;;;7.20;51.00;;;;;;7708695;23;20088;-76
2021/01/06 10:29:52;;;;;;;15.18;5.22;;;7.20;51.00;;;;;;7687199;23;20369;-75
2021/01/06 10:33:18;;;;;;;15.10;5.65;;;7.20;51.00;;;;;;7686126;23;20013;-74
2021/01/06 10:36:46;;;;;;;15.48;6.63;;;7.20;50.90;;;;;;7676683;23;20059;-76
2021/01/06 10:39:48;;;;;;;17.08;6.50;;;7.30;50.90;;;;;;7683571;23;20086;-77
2021/01/06 10:42:49;;;;;;;13.63;5.05;;;7.30;50.70;;;;;;7649527;23;20940;-75
2021/01/06 10:45:50;;;;;;;14.02;5.35;;;7.30;50.60;;;;;;7649683;23;20021;-77
2021/01/06 10:48:52;;;;;;;22.30;6.40;;;7.30;50.50;;;;;;7636343;23;20037;-77
2021/01/06 10:51:59;;;;;;;15.07;5.80;;;7.30;50.40;;;;;;7673716;23;20309;-77
2021/01/06 10:55:38;;;;;;;19.35;5.75;;;7.30;50.10;;;;;;7676119;23;20013;-75
2021/01/06 10:58:44;;;;;;;10.13;4.25;;;7.20;50.20;;;;;;7673452;23;20107;-76
2021/01/06 11:02:07;;;;;;;13.35;4.93;;;7.30;50.30;;;;;;7671098;23;20045;-78
2021/01/06 11:05:22;;;;;;;13.70;4.95;;;7.30;50.20;;;;;;7674380;23;20012;-76
2021/01/06 11:08:45;;;;;;;12.68;5.78;;;7.30;50.30;;;;;;7673753;23;20036;-76
2021/01/06 11:12:11;;;;;;;10.45;4.70;;;7.30;50.30;;;;;;7675438;23;20017;-78
2021/01/06 11:15:40;;;;;;;19.75;5.38;;;7.30;50.30;;;;;;7671382;23;20107;-76
2021/01/06 11:18:44;;;;;;;;;;;7.30;50.30;;;;;;7672334;23;20076;-76
2021/01/06 11:22:28;;;;;;;12.25;4.47;;;7.40;50.90;;;;;;7699460;23;20207;-76
2021/01/06 11:25:35;;;;;;;14.93;5.13;;;7.40;50.30;;;;;;7538563;23;20097;-78
2021/01/06 11:28:55;;;;;;;12.07;5.57;;;7.40;50.60;;;;;;7537099;23;20015;-77
2021/01/06 11:31:59;;;;;;;17.13;6.05;;;7.40;49.90;;;;;;7536697;23;20109;-77
2021/01/06 11:35:22;;;;;;;13.52;5.07;;;7.30;50.00;;;;;;7559560;23;20019;-79
2021/01/06 11:38:38;;;;;;;13.13;5.32;;;7.30;50.20;;;;;;7537308;23;20452;-78
2021/01/06 11:41:42;;;;;;;17.67;7.25;;;7.30;50.20;;;;;;7520272;23;20022;-78
2021/01/06 11:45:12;;;;;;;14.90;5.40;;;7.30;50.20;;;;;;7561625;23;20374;-77
2021/01/06 11:48:31;;;;;;;14.38;5.57;;;7.30;50.30;;;;;;7543817;23;20430;-77
2021/01/06 11:51:31;;;;;;;12.85;5.35;;;7.40;50.40;;;;;;7600145;23;20018;-76
2021/01/06 11:54:37;;;;;;;27.90;7.05;;;7.40;50.30;;;;;;7610921;23;20014;-76
2021/01/06 11:57:58;;;;;;;21.00;6.75;;;7.40;50.00;;;;;;7683526;23;20029;-75
2021/01/06 12:01:16;;;;;;;17.10;6.82;;;7.40;50.10;;;;;;7653791;23;20095;-77
2021/01/06 12:04:50;;;;;;;16.43;6.70;;;7.40;50.10;;;;;;7675143;23;20100;-78
2021/01/06 12:07:55;;;;;;;13.90;6.32;;;7.50;50.20;;;;;;7674221;23;20455;-77
2021/01/06 12:11:02;;;;;;;16.98;6.18;;;7.50;50.00;;;;;;7660454;23;20032;-76
2021/01/06 12:14:03;;;;;;;17.90;6.15;;;7.60;50.00;;;;;;7673183;23;20021;-78
2021/01/06 12:17:13;;;;;;;12.88;5.70;;;7.60;49.90;;;;;;7672077;23;20071;-76
2021/01/06 12:20:35;;;;;;;19.50;5.88;;;7.60;49.80;;;;;;7675087;23;20040;-77
2021/01/06 12:23:42;;;;;;;16.83;6.22;;;7.60;49.80;;;;;;7675470;23;20084;-78
2021/01/06 12:26:47;;;;;;;16.38;6.40;;;7.60;49.60;;;;;;7672754;23;20440;-78
2021/01/06 12:30:28;;;;;;;22.02;6.32;;;7.60;49.80;;;;;;7675505;23;20040;-75
2021/01/06 12:33:48;;;;;;;15.43;5.68;;;7.60;49.70;;;;;;7596306;23;20073;-76
2021/01/06 12:37:13;;;;;;;20.75;7.13;;;7.60;49.60;;;;;;7583416;23;20314;-78
2021/01/06 12:40:22;;;;;;;20.83;6.93;;;7.60;49.60;;;;;;7596943;23;20006;-81
2021/01/06 12:43:28;;;;;;;15.18;5.65;;;7.70;49.60;;;;;;7568002;23;20026;-76
2021/01/06 12:46:37;;;;;;;14.32;6.03;;;7.70;49.50;;;;;;7564459;23;20010;-76
2021/01/06 12:49:42;;;;;;;16.85;6.22;;;7.80;49.60;;;;;;7587214;23;20026;-76
2021/01/06 12:52:52;;;;;;;16.77;6.05;;;7.90;49.40;;;;;;7561475;23;20026;-77
2021/01/06 12:56:09;;;;;;;14.52;6.20;;;7.90;49.30;;;;;;7537624;23;20029;-75
2021/01/06 12:59:17;;;;;;;11.93;5.85;;;8.00;49.10;;;;;;7573636;23;20076;-75
2021/01/06 13:02:33;;;;;;;15.88;5.88;;;8.00;49.00;;;;;;7597226;23;20093;-75
2021/01/06 13:05:34;;;;;;;15.98;5.60;;;7.90;48.90;;;;;;7598665;23;20026;-76
2021/01/06 13:08:59;;;;;;;23.77;6.25;;;8.00;48.90;;;;;;7623799;23;20080;-78
2021/01/06 13:12:42;;;;;;;12.85;5.35;;;8.00;48.90;;;;;;7676322;23;20032;-76
2021/01/06 13:15:55;;;;;;;17.50;6.25;;;8.00;48.70;;;;;;7548392;23;20034;-76
2021/01/06 13:18:56;;;;;;;13.65;6.05;;;8.00;48.60;;;;;;7597697;23;20041;-76
2021/01/06 13:22:03;;;;;;;18.42;6.78;;;8.00;48.40;;;;;;7600035;23;20014;-77
2021/01/06 13:25:07;;;;;;;14.95;5.63;;;8.00;48.50;;;;;;7599256;23;20398;-76
2021/01/06 13:28:16;;;;;;;17.42;6.05;;;8.00;48.50;;;;;;7599827;23;20013;-76
2021/01/06 13:31:22;;;;;;;18.20;7.13;;;7.90;48.50;;;;;;7589401;23;20034;-75
2021/01/06 13:34:52;;;;;;;20.23;7.18;;;7.80;48.50;;;;;;7584839;23;20025;-76
2021/01/06 13:38:13;;;;;;;17.92;6.53;;;7.80;48.80;;;;;;7580263;23;20022;-78
2021/01/06 13:41:20;;;;;;;16.88;6.40;;;7.70;48.90;;;;;;7559037;23;20021;-77
2021/01/06 13:44:42;;;;;;;14.75;6.25;;;7.70;48.90;;;;;;7606024;23;20021;-78
2021/01/06 13:47:49;;;;;;;19.77;6.68;;;7.70;49.00;;;;;;7538794;23;20049;-76
2021/01/06 13:50:57;;;;;;;14.27;5.75;;;7.70;49.20;;;;;;7578055;23;20380;-79
2021/01/06 13:54:08;;;;;;;23.60;6.70;;;7.70;49.20;;;;;;7715082;23;20013;-76
2021/01/06 13:57:38;;;;;;;15.90;6.78;;;7.70;49.30;;;;;;7656675;23;20108;-77
2021/01/06 14:00:42;;;;;;;15.95;6.72;;;7.60;49.30;;;;;;7538202;23;20034;-77
2021/01/06 14:04:02;;;;;;;14.18;5.75;;;7.50;49.30;;;;;;7564554;23;20300;-77
2021/01/06 14:07:10;;;;;;;19.75;7.15;;;7.50;49.40;;;;;;7541698;23;20014;-77
2021/01/06 14:10:39;;;;;;;28.75;7.82;;;7.60;49.40;;;;;;7563415;23;20014;-75
2021/01/06 14:14:04;;;;;;;17.75;5.93;;;7.50;49.40;;;;;;7564170;23;20105;-77
2021/01/06 14:17:29;;;;;;;18.15;6.13;;;7.50;49.30;;;;;;7565051;23;20029;-77
2021/01/06 14:21:08;;;;;;;14.52;5.47;;;7.50;49.30;;;;;;7541186;23;20093;-78
2021/01/06 14:24:15;;;;;;;18.88;6.85;;;7.40;49.30;;;;;;7559409;23;20383;-75
2021/01/06 14:27:45;;;;;;;14.03;6.67;;;7.40;49.30;;;;;;7562429;23;20053;-76
2021/01/06 14:31:15;;;;;;;11.90;4.53;;;7.30;49.40;;;;;;7549834;23;20022;-77
2021/01/06 14:34:19;;;;;;;17.77;6.43;;;7.20;49.60;;;;;;7561203;23;20029;-77
2021/01/06 14:37:26;;;;;;;14.68;5.07;;;7.20;49.60;;;;;;7603794;23;20080;-78
2021/01/06 14:40:50;;;;;;;15.95;6.85;;;7.20;49.70;;;;;;7697403;23;20490;-79
2021/01/06 14:44:16;;;;;;;20.23;8.07;;;7.20;49.70;;;;;;7686244;23;20028;-78
2021/01/06 14:47:29;;;;;;;17.85;6.88;;;7.10;49.70;;;;;;7633179;23;20325;-78
2021/01/06 14:51:14;;;;;;;14.88;6.47;;;7.20;49.70;;;;;;7666015;23;20405;-80
2021/01/06 14:54:35;;;;;;;15.23;6.32;;;7.20;49.80;;;;;;7399605;23;20012;-79
2021/01/06 14:57:45;;;;;;;18.10;6.47;;;7.20;49.70;;;;;;7427715;23;20015;-80
2021/01/06 15:00:46;;;;;;;18.67;5.18;;;7.20;49.70;;;;;;7447000;23;20397;-81
2021/01/06 15:04:06;;;;;;;16.67;5.50;;;7.20;49.70;;;;;;7459851;23;20027;-79
2021/01/06 15:07:14;;;;;;;16.20;5.97;;;7.30;49.60;;;;;;7449191;23;20109;-80
2021/01/06 15:10:25;;;;;;;12.25;4.70;;;7.10;49.40;;;;;;7431618;23;20069;-75
2021/01/06 15:13:28;;;;;;;17.65;6.15;;;7.30;49.40;;;;;;7425455;23;20026;-81
2021/01/06 15:16:31;;;;;;;14.75;6.28;;;7.20;49.40;;;;;;7421823;24;20103;-78
2021/01/06 15:19:35;;;;;;;36.20;6.90;;;7.20;49.50;;;;;;7406717;24;20016;-81
2021/01/06 15:22:36;;;;;;;17.45;6.05;;;7.20;49.40;;;;;;7421240;24;20031;-79
2021/01/06 15:25:49;;;;;;;18.17;6.68;;;7.20;49.40;;;;;;7404133;24;20068;-80
2021/01/06 15:28:53;;;;;;;29.70;7.50;;;7.20;49.50;;;;;;7407075;24;20012;-78
2021/01/06 15:32:27;;;;;;;14.15;6.47;;;7.20;49.60;;;;;;7618736;23;20017;-78
2021/01/06 15:35:46;;;;;;;30.83;6.25;;;7.20;49.60;;;;;;7680290;23;20013;-79
2021/01/06 15:38:52;;;;;;;;;;;7.20;49.60;;;;;;7651846;23;20274;-79
2021/01/06 15:42:03;;;;;;;18.33;6.20;;;7.10;49.60;;;;;;7646244;23;19912;-79
2021/01/06 15:45:13;;;;;;;19.95;6.45;;;7.10;49.50;;;;;;7646871;23;20017;-77
2021/01/06 15:48:16;;;;;;;13.98;5.43;;;7.10;49.70;;;;;;7649800;23;20013;-80
2021/01/06 15:51:23;;;;;;;16.48;6.75;;;7.10;49.80;;;;;;7707800;23;20024;-79
2021/01/06 15:54:29;;;;;;;16.92;6.20;;;7.10;49.80;;;;;;7671515;23;20420;-79
2021/01/06 15:57:33;;;;;;;15.27;6.72;;;7.10;49.80;;;;;;7713216;23;20016;-79
2021/01/06 16:00:34;;;;;;;19.10;7.32;;;7.10;49.90;;;;;;7673304;23;20016;-79
2021/01/06 16:03:54;;;;;;;18.83;6.97;;;7.20;50.00;;;;;;7687600;23;20325;-80
2021/01/06 16:07:00;;;;;;;23.42;7.70;;;7.00;50.10;;;;;;7642438;23;20036;-79
2021/01/06 16:10:16;;;;;;;18.63;7.35;;;7.00;50.20;;;;;;7674615;23;20036;-79
2021/01/06 16:13:39;;;;;;;18.38;6.85;;;7.00;50.20;;;;;;7676080;23;20020;-79
2021/01/06 16:17:06;;;;;;;28.92;6.65;;;7.00;50.30;;;;;;7679125;23;20029;-79
2021/01/06 16:20:18;;;;;;;19.10;6.60;;;7.00;50.30;;;;;;7678132;23;20082;-78
2021/01/06 16:23:27;;;;;;;20.35;7.70;;;7.00;50.30;;;;;;7677036;23;20027;-81
2021/01/06 16:26:36;;;;;;;19.98;6.88;;;6.90;50.30;;;;;;7676942;23;20146;-79
2021/01/06 16:29:41;;;;;;;18.02;7.20;;;6.90;50.50;;;;;;7676919;23;20013;-78
2021/01/06 16:33:00;;;;;;;17.35;6.00;;;7.00;50.60;;;;;;7677568;23;20295;-79
2021/01/06 16:36:15;;;;;;;22.60;8.45;;;6.90;50.50;;;;;;7688169;23;20408;-78
2021/01/06 16:39:26;;;;;;;20.75;7.72;;;6.90;50.50;;;;;;7681901;23;20032;-78